Time;durP1;ratioP1;P1;durP2;ratioP2;P2;SDS_P1;SDS_P2;PMS_P1;PMS_P2;Temp;Humidity;BMP_temperature;BMP_pressure;BME280_temperature;BME280_humidity;BME280_pressure;Samples;Min_cycle;Max_cycle;Signal;HPM_P1;HPM_P2
2021/01/31 00:01:37;;;;;;;5.77;5.37;;;7.30;49.00;;;;;;5013943;28;20220;-64
2021/01/31 00:04:03;;;;;;;5.10;4.80;;;7.20;49.50;;;;;;5013423;28;21747;-62
2021/01/31 00:06:28;;;;;;;4.93;4.63;;;7.40;49.00;;;;;;5014674;28;20232;-65
2021/01/31 00:08:54;;;;;;;5.07;4.70;;;7.40;48.30;;;;;;5013192;28;20281;-63
2021/01/31 00:11:19;;;;;;;5.90;5.40;;;7.40;48.20;;;;;;5014925;28;20654;-64
2021/01/31 00:13:45;;;;;;;6.10;5.70;;;7.30;48.80;;;;;;5014914;28;20234;-63
2021/01/31 00:16:11;;;;;;;6.10;5.70;;;7.20;47.80;;;;;;5013916;28;20258;-64
2021/01/31 00:18:37;;;;;;;5.40;5.10;;;7.20;48.90;;;;;;5015293;28;20243;-65
2021/01/31 00:21:03;;;;;;;5.70;5.33;;;7.20;48.60;;;;;;5013731;28;21141;-66
2021/01/31 00:23:29;;;;;;;5.63;5.23;;;7.20;48.90;;;;;;5015030;28;20828;-62
2021/01/31 00:25:55;;;;;;;5.67;5.27;;;7.10;49.40;;;;;;5013437;28;20496;-61
2021/01/31 00:28:25;;;;;;;5.67;5.37;;;7.00;49.90;;;;;;5014060;28;20236;-63
2021/01/31 00:30:51;;;;;;;5.63;5.23;;;7.10;50.00;;;;;;5013082;28;20706;-62
2021/01/31 00:33:20;;;;;;;5.80;5.43;;;7.20;49.20;;;;;;5015045;28;20489;-63
2021/01/31 00:35:46;;;;;;;5.90;5.50;;;7.20;48.60;;;;;;5013579;28;20224;-62
2021/01/31 00:38:14;;;;;;;5.97;5.57;;;7.10;49.20;;;;;;5014248;28;20528;-66
2021/01/31 00:40:40;;;;;;;6.87;6.30;;;7.20;49.40;;;;;;5014641;28;20552;-64
2021/01/31 00:43:06;;;;;;;5.87;5.40;;;7.20;49.30;;;;;;5013786;28;20541;-64
2021/01/31 00:45:31;;;;;;;6.30;5.90;;;7.20;50.00;;;;;;5014753;28;20231;-62
2021/01/31 00:47:57;;;;;;;6.47;5.87;;;7.10;48.60;;;;;;5013668;28;21219;-65
2021/01/31 00:50:33;;;;;;;5.83;5.43;;;6.90;49.10;;;;;;5014826;28;20620;-65
2021/01/31 00:52:58;;;;;;;6.60;6.20;;;7.00;49.90;;;;;;5013634;28;21631;-64
2021/01/31 00:55:24;;;;;;;6.00;5.60;;;7.00;48.50;;;;;;5015423;28;20450;-66
2021/01/31 00:57:50;;;;;;;5.63;5.20;;;7.20;48.80;;;;;;5012851;28;20289;-66
2021/01/31 01:00:16;;;;;;;6.20;5.77;;;7.00;48.50;;;;;;5014625;28;20301;-65
2021/01/31 01:02:42;;;;;;;5.87;5.47;;;7.00;49.90;;;;;;5013089;28;20454;-67
2021/01/31 01:05:08;;;;;;;5.70;5.40;;;6.90;49.80;;;;;;5014470;28;20235;-64
2021/01/31 01:07:34;;;;;;;5.93;5.43;;;7.00;49.90;;;;;;5012871;28;20612;-65
2021/01/31 01:10:00;;;;;;;6.40;6.00;;;7.10;48.50;;;;;;5014467;28;20447;-65
2021/01/31 01:12:25;;;;;;;6.13;5.63;;;7.00;48.90;;;;;;5015983;28;20243;-63
2021/01/31 01:14:50;;;;;;;6.60;6.00;;;7.00;49.90;;;;;;5016755;28;20227;-65
2021/01/31 01:17:16;;;;;;;6.93;6.43;;;7.00;49.40;;;;;;5017942;28;20231;-66
2021/01/31 01:19:41;;;;;;;6.87;6.37;;;6.90;49.90;;;;;;5016349;28;20217;-65
2021/01/31 01:22:07;;;;;;;5.73;5.33;;;6.90;48.40;;;;;;5018096;28;20243;-62
2021/01/31 01:24:32;;;;;;;7.30;6.80;;;7.10;48.80;;;;;;5016783;28;20753;-65
2021/01/31 01:26:58;;;;;;;6.53;6.13;;;7.10;49.10;;;;;;5017656;28;20287;-65
2021/01/31 01:29:24;;;;;;;6.47;6.07;;;7.00;49.70;;;;;;5017554;28;20699;-62
2021/01/31 01:31:49;;;;;;;8.17;7.57;;;7.00;48.70;;;;;;5017091;28;20219;-65
2021/01/31 01:34:15;;;;;;;7.37;6.77;;;6.90;49.80;;;;;;5018539;28;20454;-63
2021/01/31 01:36:41;;;;;;;7.40;6.90;;;6.90;49.90;;;;;;5016290;28;20238;-65
2021/01/31 01:39:06;;;;;;;7.00;6.40;;;6.80;49.80;;;;;;5017349;28;20632;-63
2021/01/31 01:41:37;;;;;;;7.87;7.17;;;6.80;49.40;;;;;;5016358;28;20246;-63
2021/01/31 01:44:03;;;;;;;6.43;5.93;;;6.70;50.30;;;;;;5017792;28;20264;-64
2021/01/31 01:46:39;;;;;;;6.43;5.97;;;6.70;49.70;;;;;;5015882;28;20474;-65
2021/01/31 01:49:16;;;;;;;6.80;6.30;;;6.70;49.70;;;;;;5019035;28;20827;-65
2021/01/31 01:51:56;;;;;;;6.70;6.20;;;6.70;49.70;;;;;;5017895;28;20446;-66
2021/01/31 01:54:30;;;;;;;7.00;6.43;;;6.70;49.70;;;;;;5017496;28;20435;-63
2021/01/31 01:57:04;;;;;;;7.03;6.53;;;6.70;50.30;;;;;;5018499;28;20999;-66
2021/01/31 01:59:30;;;;;;;6.60;6.13;;;6.80;49.20;;;;;;5016587;28;20446;-64
2021/01/31 02:02:18;;;;;;;6.07;5.67;;;6.70;49.50;;;;;;5016979;28;20445;-65
2021/01/31 02:04:45;;;;;;;7.07;6.57;;;6.70;49.30;;;;;;5016745;28;20443;-66
2021/01/31 02:07:10;;;;;;;6.93;6.43;;;6.80;48.80;;;;;;5015599;28;20492;-66
2021/01/31 02:09:38;;;;;;;7.33;6.83;;;6.60;49.20;;;;;;5017251;28;20612;-63
2021/01/31 02:12:05;;;;;;;7.20;6.60;;;6.60;49.60;;;;;;5015864;28;20322;-66
2021/01/31 02:14:33;;;;;;;6.40;6.00;;;6.70;49.70;;;;;;5016820;28;20454;-64
2021/01/31 02:17:07;;;;;;;8.17;7.57;;;6.60;49.60;;;;;;5015643;28;20454;-63
2021/01/31 02:20:10;;;;;;;6.90;6.40;;;6.60;48.90;;;;;;5017516;28;20455;-63
2021/01/31 02:23:05;;;;;;;7.17;6.50;;;6.60;49.50;;;;;;5016244;28;20483;-66
2021/01/31 02:25:57;;;;;;;6.40;5.90;;;6.80;50.00;;;;;;5008035;28;20446;-66
2021/01/31 02:28:28;;;;;;;7.10;6.60;;;6.80;48.70;;;;;;5015875;28;20455;-66
2021/01/31 02:31:31;;;;;;;8.03;7.53;;;6.70;48.80;;;;;;5015407;28;20451;-62
2021/01/31 02:34:03;;;;;;;6.93;6.40;;;6.70;48.80;;;;;;5015596;28;20454;-63
2021/01/31 02:36:54;;;;;;;7.37;6.80;;;6.60;48.50;;;;;;5016591;28;20850;-65
2021/01/31 02:39:37;;;;;;;7.40;6.80;;;6.70;49.10;;;;;;5015666;28;20529;-64
2021/01/31 02:42:20;;;;;;;7.53;7.03;;;6.70;49.70;;;;;;5015229;28;20478;-66
2021/01/31 02:45:04;;;;;;;7.23;6.70;;;6.70;48.50;;;;;;5016026;28;20473;-64
2021/01/31 02:47:33;;;;;;;7.53;6.93;;;6.60;48.70;;;;;;5015837;28;20466;-66
2021/01/31 02:50:06;;;;;;;8.33;7.70;;;6.60;49.20;;;;;;5015109;28;20508;-65
2021/01/31 02:52:38;;;;;;;6.17;5.77;;;6.60;49.60;;;;;;5016491;28;20454;-64
2021/01/31 02:55:15;;;;;;;6.90;6.40;;;6.70;49.70;;;;;;5015705;28;20536;-65
2021/01/31 02:57:54;;;;;;;7.23;6.73;;;6.60;49.60;;;;;;5016448;28;20462;-66
2021/01/31 03:00:28;;;;;;;7.60;7.00;;;6.60;48.90;;;;;;5014357;28;20558;-63
2021/01/31 03:02:57;;;;;;;8.07;7.47;;;6.60;47.60;;;;;;5015335;28;20535;-63
2021/01/31 03:05:29;;;;;;;8.83;8.03;;;6.50;48.30;;;;;;5016697;28;20447;-66
2021/01/31 03:07:57;;;;;;;7.83;7.23;;;6.50;49.10;;;;;;5014483;28;20545;-64
2021/01/31 03:10:30;;;;;;;7.83;7.23;;;6.60;48.70;;;;;;5017223;28;20465;-64
2021/01/31 03:13:25;;;;;;;7.80;7.30;;;6.60;48.50;;;;;;5015497;28;20481;-64
2021/01/31 03:15:56;;;;;;;8.53;7.93;;;6.60;48.30;;;;;;5001092;28;20454;-65
2021/01/31 03:18:29;;;;;;;7.73;7.13;;;6.60;48.50;;;;;;5016647;28;20481;-63
2021/01/31 03:21:05;;;;;;;7.93;7.33;;;6.60;47.80;;;;;;5015381;28;20646;-63
2021/01/31 03:23:46;;;;;;;8.20;7.50;;;6.60;49.20;;;;;;5015774;28;20465;-66
2021/01/31 03:26:22;;;;;;;8.50;7.80;;;6.70;47.40;;;;;;5015432;28;20493;-64
2021/01/31 03:28:48;;;;;;;7.73;7.20;;;6.70;48.70;;;;;;5014157;28;21162;-64
2021/01/31 03:31:19;;;;;;;7.73;7.20;;;6.70;47.80;;;;;;5016508;28;20456;-65
2021/01/31 03:34:14;;;;;;;9.07;8.27;;;6.60;47.20;;;;;;5015191;28;20312;-64
2021/01/31 03:36:46;;;;;;;7.23;6.73;;;6.70;47.70;;;;;;5013725;28;20574;-65
2021/01/31 03:39:14;;;;;;;7.93;7.30;;;6.70;47.70;;;;;;5016150;28;20490;-63
2021/01/31 03:41:40;;;;;;;8.10;7.40;;;6.70;47.70;;;;;;5016608;28;20442;-64
2021/01/31 03:44:05;;;;;;;7.80;7.20;;;6.70;47.50;;;;;;5014642;28;21011;-63
2021/01/31 03:46:59;;;;;;;8.50;7.90;;;6.50;47.30;;;;;;5015903;28;20232;-62
2021/01/31 03:49:33;;;;;;;8.70;8.00;;;6.40;47.80;;;;;;5014221;28;20612;-65
2021/01/31 03:51:59;;;;;;;9.77;8.97;;;6.40;48.30;;;;;;5015350;28;20459;-63
2021/01/31 03:54:25;;;;;;;9.70;8.87;;;6.20;49.20;;;;;;5014570;28;20491;-64
2021/01/31 03:56:55;;;;;;;8.60;7.90;;;6.30;49.30;;;;;;5015862;28;20235;-65
2021/01/31 03:59:26;;;;;;;10.00;9.17;;;6.40;49.00;;;;;;5013818;28;21369;-65
2021/01/31 04:01:55;;;;;;;9.30;8.50;;;6.40;48.40;;;;;;5016723;28;20473;-65
2021/01/31 04:04:45;;;;;;;8.50;7.80;;;6.20;48.80;;;;;;5015459;28;20456;-65
2021/01/31 04:07:15;;;;;;;8.67;8.00;;;6.40;49.40;;;;;;5004066;28;20481;-63
2021/01/31 04:09:41;;;;;;;9.97;9.17;;;6.50;49.10;;;;;;5016444;28;20457;-62
2021/01/31 04:12:14;;;;;;;9.97;9.07;;;6.40;49.40;;;;;;5015243;28;20469;-65
2021/01/31 04:14:46;;;;;;;8.90;8.27;;;6.50;49.70;;;;;;5016829;28;20459;-66
2021/01/31 04:17:12;;;;;;;9.07;8.30;;;6.50;49.00;;;;;;5015064;28;20454;-62
2021/01/31 04:19:37;;;;;;;9.50;8.70;;;6.50;49.50;;;;;;5016912;28;20463;-64
2021/01/31 04:22:03;;;;;;;9.57;8.87;;;6.70;47.60;;;;;;5015275;28;20215;-64
2021/01/31 04:24:28;;;;;;;9.00;8.13;;;6.50;47.80;;;;;;5017645;28;21056;-66
2021/01/31 04:26:54;;;;;;;8.87;8.17;;;6.50;47.70;;;;;;5016245;28;20222;-63
2021/01/31 04:29:19;;;;;;;8.50;7.83;;;6.70;47.00;;;;;;5015250;28;20235;-65
2021/01/31 04:31:45;;;;;;;9.40;8.60;;;6.60;47.70;;;;;;5017205;28;20748;-66
2021/01/31 04:34:10;;;;;;;8.63;7.83;;;6.60;47.80;;;;;;5015017;28;20245;-65
2021/01/31 04:36:36;;;;;;;9.37;8.57;;;6.50;48.10;;;;;;5016394;28;20609;-63
2021/01/31 04:39:03;;;;;;;9.77;9.07;;;6.70;47.80;;;;;;5014249;28;20225;-62
2021/01/31 04:41:39;;;;;;;8.90;8.20;;;6.80;46.60;;;;;;5016518;28;20231;-63
2021/01/31 04:44:07;;;;;;;9.17;8.47;;;6.60;46.20;;;;;;5014275;28;20446;-66
2021/01/31 04:46:45;;;;;;;9.27;8.50;;;6.60;45.70;;;;;;5017360;28;20476;-67
2021/01/31 04:49:49;;;;;;;9.00;7.33;;;6.70;46.90;;;;;;5018718;28;20731;-63
2021/01/31 04:52:30;;;;;;;8.73;8.03;;;6.60;47.40;;;;;;5018972;28;20509;-64
2021/01/31 04:55:16;;;;;;;8.87;8.07;;;6.70;47.40;;;;;;5018473;28;20435;-62
2021/01/31 04:57:49;;;;;;;8.67;7.97;;;6.70;46.20;;;;;;5018872;28;20449;-64
2021/01/31 05:00:22;;;;;;;8.67;7.93;;;6.70;45.50;;;;;;5018552;28;20430;-62
2021/01/31 05:02:51;;;;;;;7.87;7.27;;;6.60;45.60;;;;;;5018143;28;20441;-65
2021/01/31 05:05:18;;;;;;;8.83;8.10;;;6.70;45.40;;;;;;5019132;28;20443;-63
2021/01/31 05:07:55;;;;;;;7.60;7.00;;;6.60;46.70;;;;;;5017410;28;20507;-62
2021/01/31 05:10:21;;;;;;;8.57;7.97;;;6.80;45.70;;;;;;5019378;28;20537;-65
2021/01/31 05:12:46;;;;;;;6.93;6.43;;;6.70;45.00;;;;;;5017697;28;21099;-64
2021/01/31 05:15:22;;;;;;;8.90;8.10;;;6.80;46.40;;;;;;5021260;28;20712;-65
2021/01/31 05:17:51;;;;;;;7.23;6.73;;;6.80;46.60;;;;;;5027071;28;20241;-64
2021/01/31 05:20:21;;;;;;;7.83;7.23;;;6.70;44.80;;;;;;5023193;28;20450;-62
2021/01/31 05:22:52;;;;;;;9.33;8.53;;;6.60;45.50;;;;;;5016738;28;20459;-65
2021/01/31 05:25:21;;;;;;;7.50;6.90;;;6.70;45.70;;;;;;5019651;28;20530;-63
2021/01/31 05:27:49;;;;;;;8.20;7.60;;;6.60;45.50;;;;;;5019149;28;20477;-64
2021/01/31 05:30:15;;;;;;;8.50;7.80;;;6.70;46.00;;;;;;5018578;28;21013;-64
2021/01/31 05:33:13;;;;;;;8.73;7.93;;;6.90;46.80;;;;;;5018991;28;20504;-64
2021/01/31 05:35:46;;;;;;;8.30;7.60;;;6.70;44.80;;;;;;5020045;28;20454;-65
2021/01/31 05:38:13;;;;;;;8.60;7.80;;;6.70;45.60;;;;;;5018877;28;20465;-63
2021/01/31 05:40:40;;;;;;;7.57;6.97;;;6.80;44.70;;;;;;5020429;28;20491;-65
2021/01/31 05:43:12;;;;;;;8.43;7.80;;;6.80;44.30;;;;;;5020957;28;20458;-65
2021/01/31 05:45:41;;;;;;;7.77;7.17;;;6.70;45.00;;;;;;5018887;28;21006;-65
2021/01/31 05:48:22;;;;;;;7.40;6.80;;;6.70;45.20;;;;;;5017786;28;20458;-65
2021/01/31 05:50:50;;;;;;;7.67;7.03;;;6.60;45.10;;;;;;5018167;28;20875;-62
2021/01/31 05:53:32;;;;;;;8.30;7.60;;;6.70;45.10;;;;;;5018933;28;20537;-65
2021/01/31 05:56:22;;;;;;;8.10;7.40;;;6.80;45.00;;;;;;5024265;28;20463;-62
2021/01/31 05:58:58;;;;;;;8.80;8.00;;;6.70;44.50;;;;;;5018931;28;20417;-66
2021/01/31 06:01:25;;;;;;;8.93;8.23;;;6.70;44.70;;;;;;5017198;28;20220;-66
2021/01/31 06:03:51;;;;;;;8.00;7.30;;;6.70;45.30;;;;;;5018275;28;20458;-65
2021/01/31 06:06:24;;;;;;;7.80;7.20;;;6.80;45.00;;;;;;5018293;28;20455;-65
2021/01/31 06:08:52;;;;;;;7.40;6.90;;;6.70;46.10;;;;;;5018377;28;20227;-66
2021/01/31 06:11:38;;;;;;;8.30;7.60;;;6.70;45.80;;;;;;5018225;28;20515;-66
2021/01/31 06:14:06;;;;;;;8.73;8.03;;;7.00;46.50;;;;;;5017072;28;20454;-64
2021/01/31 06:16:34;;;;;;;8.10;6.93;;;7.00;45.40;;;;;;5017707;28;20487;-66
2021/01/31 06:19:10;;;;;;;7.90;7.27;;;6.80;44.60;;;;;;5017826;28;20450;-65
2021/01/31 06:21:45;;;;;;;7.70;7.10;;;7.00;45.10;;;;;;5018171;28;20501;-64
2021/01/31 06:24:22;;;;;;;8.13;7.53;;;6.90;45.00;;;;;;5018776;28;20453;-64
2021/01/31 06:26:49;;;;;;;9.10;7.20;;;6.80;45.40;;;;;;5017936;28;20556;-65
2021/01/31 06:29:35;;;;;;;7.33;6.77;;;6.80;45.20;;;;;;5018107;28;20447;-65
2021/01/31 06:32:10;;;;;;;8.40;7.70;;;6.70;44.50;;;;;;5017813;28;20526;-64
2021/01/31 06:34:37;;;;;;;8.63;7.93;;;6.80;44.30;;;;;;5000864;28;20443;-64
2021/01/31 06:37:03;;;;;;;8.20;7.60;;;7.00;44.00;;;;;;4998976;28;20450;-62
2021/01/31 06:39:53;;;;;;;9.17;8.47;;;6.80;43.70;;;;;;5017721;28;20821;-63
2021/01/31 06:42:36;;;;;;;7.80;7.20;;;6.90;43.40;;;;;;5017774;28;20864;-65
2021/01/31 06:45:25;;;;;;;8.30;7.63;;;6.80;43.80;;;;;;5000092;28;20466;-64
2021/01/31 06:48:20;;;;;;;9.33;8.63;;;6.60;44.50;;;;;;5015961;28;20484;-64
2021/01/31 06:51:04;;;;;;;8.00;7.30;;;6.60;44.70;;;;;;5017710;28;20511;-65
2021/01/31 06:54:21;;;;;;;8.10;7.43;;;6.70;45.00;;;;;;5017256;28;20450;-64
2021/01/31 06:56:55;;;;;;;7.97;7.37;;;6.90;45.80;;;;;;4990744;28;20541;-64
2021/01/31 06:59:58;;;;;;;8.10;7.40;;;6.80;44.80;;;;;;5017278;28;20450;-64
2021/01/31 07:02:59;;;;;;;9.43;8.53;;;6.70;44.00;;;;;;5016636;28;20454;-64
2021/01/31 07:05:53;;;;;;;7.83;7.23;;;6.70;44.50;;;;;;5017172;28;20454;-64
2021/01/31 07:08:43;;;;;;;9.03;8.33;;;6.80;45.40;;;;;;5015685;28;20462;-65
2021/01/31 07:11:46;;;;;;;8.70;8.00;;;6.70;44.90;;;;;;5016237;28;21335;-64
2021/01/31 07:14:39;;;;;;;8.13;7.50;;;6.80;44.70;;;;;;5016933;28;20465;-64
2021/01/31 07:17:34;;;;;;;8.20;7.50;;;6.70;44.30;;;;;;5027406;28;20458;-65
2021/01/31 07:20:11;;;;;;;8.07;6.03;;;7.50;69.40;;;;;;5038279;28;20554;-64
2021/01/31 07:22:48;;;;;;;7.70;6.90;;;10.50;63.80;;;;;;5038733;28;20913;-63
2021/01/31 07:25:22;;;;;;;7.10;6.50;;;12.00;47.20;;;;;;5036661;28;20530;-63
2021/01/31 07:28:01;;;;;;;6.10;5.50;;;12.50;46.50;;;;;;5020580;28;20463;-63
2021/01/31 07:30:54;;;;;;;8.37;7.67;;;13.10;41.10;;;;;;5014164;28;20454;-65
2021/01/31 07:33:26;;;;;;;7.33;6.73;;;11.20;31.50;;;;;;5014452;28;20462;-66
2021/01/31 07:36:19;;;;;;;8.73;8.03;;;9.60;35.00;;;;;;5015387;28;20474;-65
2021/01/31 07:39:23;;;;;;;8.37;7.87;;;9.10;37.50;;;;;;5013761;28;20513;-64
2021/01/31 07:41:52;;;;;;;9.00;8.17;;;8.40;38.70;;;;;;5014234;28;20525;-66
2021/01/31 07:44:32;;;;;;;8.03;7.50;;;7.80;40.40;;;;;;5015495;28;20506;-66
2021/01/31 07:46:58;;;;;;;8.63;7.90;;;7.70;41.10;;;;;;5014044;28;20478;-64
2021/01/31 07:49:24;;;;;;;8.70;8.00;;;7.70;41.70;;;;;;5014779;28;20477;-65
2021/01/31 07:51:49;;;;;;;7.70;7.00;;;7.70;42.80;;;;;;5015625;28;20439;-65
2021/01/31 07:54:24;;;;;;;9.27;8.53;;;7.30;42.50;;;;;;5013666;28;20228;-64
2021/01/31 07:56:53;;;;;;;8.00;7.37;;;7.20;42.90;;;;;;5014714;28;20309;-65
2021/01/31 07:59:18;;;;;;;9.13;8.33;;;7.30;42.90;;;;;;5015376;28;21220;-65
2021/01/31 08:01:55;;;;;;;7.93;7.13;;;7.20;43.20;;;;;;5015317;28;20470;-65
2021/01/31 08:04:47;;;;;;;9.07;8.37;;;7.20;43.40;;;;;;5015321;28;20223;-65
2021/01/31 08:07:51;;;;;;;9.30;8.50;;;7.20;43.80;;;;;;5013356;28;20459;-65
2021/01/31 08:10:39;;;;;;;7.77;7.17;;;7.30;43.10;;;;;;5014899;28;20439;-65
2021/01/31 08:13:09;;;;;;;7.77;7.17;;;7.40;44.50;;;;;;5016341;28;20572;-65
2021/01/31 08:15:34;;;;;;;8.07;7.37;;;7.50;43.10;;;;;;5016233;28;20497;-66
2021/01/31 08:18:00;;;;;;;7.23;6.63;;;7.30;42.50;;;;;;5028221;28;20454;-67
2021/01/31 08:20:31;;;;;;;8.23;7.07;;;7.30;42.40;;;;;;5013691;28;20818;-64
2021/01/31 08:22:59;;;;;;;7.20;6.60;;;7.30;42.70;;;;;;5016813;28;20232;-64
2021/01/31 08:25:28;;;;;;;7.53;6.83;;;7.30;42.60;;;;;;5018383;28;20466;-66
2021/01/31 08:28:14;;;;;;;8.63;7.83;;;7.40;43.30;;;;;;5015921;28;20465;-64
2021/01/31 08:30:42;;;;;;;8.93;8.07;;;7.40;42.30;;;;;;5019178;28;20519;-65
2021/01/31 08:33:20;;;;;;;7.67;7.07;;;7.30;42.20;;;;;;5036893;28;20448;-65
2021/01/31 08:35:45;;;;;;;8.30;7.57;;;7.20;43.40;;;;;;5038530;28;21136;-67
2021/01/31 08:38:16;;;;;;;8.40;7.60;;;7.30;43.50;;;;;;5038232;28;20442;-66
2021/01/31 08:41:11;;;;;;;7.60;7.00;;;7.30;42.80;;;;;;5036784;28;20238;-66
2021/01/31 08:43:42;;;;;;;8.70;8.00;;;7.10;43.40;;;;;;5036630;28;20446;-67
2021/01/31 08:46:45;;;;;;;8.73;8.03;;;7.20;43.60;;;;;;5038006;28;20503;-63
2021/01/31 08:49:13;;;;;;;7.60;7.00;;;7.30;43.00;;;;;;4955648;28;20457;-65
2021/01/31 08:51:41;;;;;;;7.47;6.83;;;7.20;42.40;;;;;;5022421;28;20445;-65
2021/01/31 08:54:16;;;;;;;7.73;7.03;;;7.10;43.00;;;;;;5039014;28;20545;-66
2021/01/31 08:56:43;;;;;;;7.80;7.10;;;7.00;43.30;;;;;;5037047;28;20992;-65
2021/01/31 08:59:12;;;;;;;8.23;7.63;;;7.30;44.10;;;;;;5036798;28;20450;-65
2021/01/31 09:01:43;;;;;;;7.60;6.90;;;7.30;43.00;;;;;;5038939;28;21503;-66
2021/01/31 09:04:12;;;;;;;8.70;7.97;;;7.30;42.80;;;;;;5038192;28;20473;-64
2021/01/31 09:06:40;;;;;;;8.33;7.67;;;7.30;43.50;;;;;;5037335;28;20474;-66
2021/01/31 09:09:13;;;;;;;8.60;7.80;;;7.40;42.80;;;;;;5037772;28;21212;-66
2021/01/31 09:11:38;;;;;;;7.47;6.87;;;7.30;42.80;;;;;;5038013;28;20660;-67
2021/01/31 09:14:15;;;;;;;7.73;7.23;;;7.20;42.90;;;;;;5037008;28;21534;-66
2021/01/31 09:16:41;;;;;;;8.47;7.80;;;7.20;43.00;;;;;;5038047;28;20234;-64
2021/01/31 09:19:22;;;;;;;7.90;6.43;;;7.40;42.90;;;;;;5038046;28;20442;-66
2021/01/31 09:21:53;;;;;;;8.47;7.67;;;7.40;42.00;;;;;;5036928;28;20231;-66
2021/01/31 09:24:20;;;;;;;8.43;7.70;;;7.50;42.30;;;;;;5038183;28;20451;-66
2021/01/31 09:26:56;;;;;;;8.30;7.70;;;7.40;42.10;;;;;;5035838;28;20961;-66
2021/01/31 09:29:30;;;;;;;8.40;7.80;;;7.30;42.50;;;;;;5037670;28;20521;-65
2021/01/31 09:32:00;;;;;;;7.90;7.30;;;7.10;43.40;;;;;;5037798;28;20484;-62
2021/01/31 09:34:27;;;;;;;9.00;8.20;;;7.10;43.10;;;;;;5035919;28;20479;-65
2021/01/31 09:37:24;;;;;;;9.37;8.67;;;7.20;43.00;;;;;;5037564;28;20447;-66
2021/01/31 09:39:53;;;;;;;10.77;9.97;;;7.20;44.00;;;;;;5015797;28;20534;-66
2021/01/31 09:42:18;;;;;;;8.43;7.83;;;7.40;44.50;;;;;;5015369;28;20435;-64
2021/01/31 09:44:59;;;;;;;8.30;7.70;;;7.40;43.10;;;;;;5017016;28;20435;-66
2021/01/31 09:47:24;;;;;;;9.00;8.30;;;7.60;43.10;;;;;;5014870;28;20290;-64
2021/01/31 09:49:57;;;;;;;9.17;8.37;;;7.60;42.60;;;;;;5016598;28;21016;-65
2021/01/31 09:52:23;;;;;;;9.10;8.30;;;7.60;42.80;;;;;;5014702;28;20447;-65
2021/01/31 09:54:48;;;;;;;9.20;8.60;;;7.60;43.40;;;;;;5016426;28;20454;-65
2021/01/31 09:57:22;;;;;;;9.50;8.63;;;7.70;42.50;;;;;;5014155;28;20296;-65
2021/01/31 09:59:59;;;;;;;9.63;8.93;;;7.50;42.30;;;;;;5017282;28;20255;-66
2021/01/31 10:02:31;;;;;;;8.67;7.97;;;7.50;43.30;;;;;;5015226;28;20898;-66
2021/01/31 10:04:59;;;;;;;8.87;8.17;;;7.60;43.10;;;;;;5016725;28;20995;-66
2021/01/31 10:07:32;;;;;;;7.80;7.20;;;7.60;42.80;;;;;;5015982;28;20936;-66
2021/01/31 10:10:18;;;;;;;8.73;8.03;;;7.40;42.00;;;;;;5015137;28;20509;-66
2021/01/31 10:12:44;;;;;;;9.20;8.40;;;7.50;43.20;;;;;;5014771;28;20443;-66
2021/01/31 10:15:09;;;;;;;8.27;7.67;;;7.70;43.20;;;;;;5015824;28;21195;-66
2021/01/31 10:17:43;;;;;;;10.47;9.57;;;7.70;42.20;;;;;;5014303;28;20240;-66
2021/01/31 10:20:33;;;;;;;8.70;8.00;;;7.70;42.80;;;;;;5015799;28;20821;-67
2021/01/31 10:23:09;;;;;;;12.67;10.20;;;7.90;42.90;;;;;;5018296;28;20495;-67
2021/01/31 10:25:37;;;;;;;9.53;8.77;;;8.00;42.90;;;;;;5030404;28;20458;-66
2021/01/31 10:28:04;;;;;;;9.37;8.60;;;8.10;42.30;;;;;;5015968;28;20541;-64
2021/01/31 10:30:36;;;;;;;9.93;8.97;;;8.20;42.00;;;;;;5017068;28;20451;-66
2021/01/31 10:33:02;;;;;;;8.50;7.80;;;8.10;40.80;;;;;;5015197;28;20486;-66
2021/01/31 10:35:35;;;;;;;9.40;8.70;;;8.10;42.00;;;;;;5024435;28;20504;-66
2021/01/31 10:38:29;;;;;;;9.13;8.33;;;7.90;40.80;;;;;;5035493;28;20465;-66
2021/01/31 10:40:55;;;;;;;8.60;7.90;;;8.00;42.00;;;;;;5035234;28;20466;-63
2021/01/31 10:43:22;;;;;;;8.80;8.10;;;7.90;41.50;;;;;;5034467;28;20460;-64
2021/01/31 10:45:48;;;;;;;9.13;8.43;;;7.90;41.90;;;;;;5035752;28;20969;-65
2021/01/31 10:48:14;;;;;;;9.17;8.37;;;8.10;42.10;;;;;;5017000;28;20514;-66
2021/01/31 10:50:39;;;;;;;8.87;8.17;;;8.20;41.80;;;;;;5014437;28;20723;-66
2021/01/31 10:53:05;;;;;;;9.73;8.93;;;8.10;41.00;;;;;;5015607;28;20788;-64
2021/01/31 10:55:32;;;;;;;9.97;9.20;;;8.10;41.90;;;;;;5015986;28;20447;-65
2021/01/31 10:57:57;;;;;;;8.83;8.10;;;8.10;42.00;;;;;;5013900;28;20248;-65
2021/01/31 11:00:23;;;;;;;9.17;8.40;;;8.10;41.00;;;;;;5017882;28;20516;-64
2021/01/31 11:02:49;;;;;;;8.90;8.10;;;8.10;40.40;;;;;;5024347;28;20232;-68
2021/01/31 11:05:15;;;;;;;8.67;8.07;;;8.10;41.00;;;;;;5015482;28;20299;-64
2021/01/31 11:07:41;;;;;;;9.80;9.00;;;8.00;40.80;;;;;;5013647;28;20277;-64
2021/01/31 11:10:08;;;;;;;10.40;9.50;;;8.20;41.10;;;;;;5015713;28;20542;-64
2021/01/31 11:12:34;;;;;;;10.17;9.27;;;8.20;40.60;;;;;;5015559;28;20574;-67
2021/01/31 11:14:59;;;;;;;10.87;9.80;;;8.20;40.30;;;;;;5014061;28;20450;-66
2021/01/31 11:17:25;;;;;;;11.30;10.40;;;8.10;41.00;;;;;;5015283;28;20905;-64
2021/01/31 11:19:51;;;;;;;10.33;9.47;;;7.80;40.80;;;;;;5016577;28;20224;-65
2021/01/31 11:22:17;;;;;;;10.53;9.60;;;8.00;42.10;;;;;;5015002;28;20224;-64
2021/01/31 11:24:44;;;;;;;10.00;9.00;;;7.80;40.80;;;;;;5014258;28;20371;-64
2021/01/31 11:27:09;;;;;;;11.60;10.33;;;7.30;42.70;;;;;;5015090;28;20455;-65
2021/01/31 11:29:35;;;;;;;9.47;8.70;;;7.60;42.20;;;;;;5019973;28;20810;-65
2021/01/31 11:32:00;;;;;;;9.77;8.87;;;7.70;42.00;;;;;;5034998;28;20227;-62
2021/01/31 11:34:26;;;;;;;9.93;8.93;;;7.70;42.20;;;;;;5028397;28;20227;-63
2021/01/31 11:36:51;;;;;;;11.30;10.20;;;7.70;41.20;;;;;;5014687;28;20236;-65
2021/01/31 11:39:17;;;;;;;9.70;8.90;;;7.50;41.40;;;;;;5015787;28;20244;-65
2021/01/31 11:41:42;;;;;;;8.97;8.20;;;7.50;42.30;;;;;;5015566;28;20307;-62
2021/01/31 11:44:09;;;;;;;9.80;9.00;;;7.90;42.00;;;;;;5014066;28;20267;-63
2021/01/31 11:46:35;;;;;;;9.20;8.43;;;8.10;41.50;;;;;;5015132;28;20229;-65
2021/01/31 11:49:01;;;;;;;11.23;9.20;;;8.30;41.20;;;;;;5015652;28;20449;-65
2021/01/31 11:51:27;;;;;;;9.30;8.60;;;8.20;40.40;;;;;;5015860;28;20482;-66
2021/01/31 11:53:52;;;;;;;10.43;9.50;;;8.10;41.00;;;;;;5035686;28;20449;-64
2021/01/31 11:56:18;;;;;;;10.57;9.60;;;8.00;40.90;;;;;;5052606;28;20219;-64
2021/01/31 11:58:43;;;;;;;10.40;9.30;;;8.10;40.60;;;;;;5054354;28;20231;-65
2021/01/31 12:01:14;;;;;;;9.30;8.50;;;8.30;40.40;;;;;;5052774;28;20223;-65
2021/01/31 12:03:42;;;;;;;9.57;8.77;;;8.10;39.80;;;;;;5055684;28;20254;-64
2021/01/31 12:06:07;;;;;;;9.50;8.70;;;8.30;40.60;;;;;;5055709;28;20450;-62
2021/01/31 12:08:33;;;;;;;8.77;8.07;;;8.40;40.00;;;;;;5037708;28;20548;-64
2021/01/31 12:10:58;;;;;;;9.33;8.53;;;8.50;40.60;;;;;;5055906;28;20261;-64
2021/01/31 12:13:24;;;;;;;10.20;8.70;;;8.60;40.40;;;;;;5056012;28;20989;-63
2021/01/31 12:15:49;;;;;;;8.97;8.17;;;8.60;39.70;;;;;;5055578;28;20222;-64
2021/01/31 12:18:15;;;;;;;11.20;10.20;;;8.70;39.20;;;;;;5055607;28;20238;-63
2021/01/31 12:20:40;;;;;;;8.87;8.20;;;8.70;39.60;;;;;;5055449;28;20247;-65
2021/01/31 12:23:06;;;;;;;9.77;8.87;;;8.70;38.20;;;;;;5055371;28;20923;-63
2021/01/31 12:25:32;;;;;;;9.30;8.60;;;8.70;38.30;;;;;;5055871;28;20245;-65
2021/01/31 12:27:57;;;;;;;10.50;9.50;;;8.40;39.10;;;;;;5055675;28;20258;-63
2021/01/31 12:30:28;;;;;;;9.70;8.80;;;8.50;40.10;;;;;;5055697;28;20223;-65
2021/01/31 12:32:54;;;;;;;10.67;9.77;;;8.50;40.30;;;;;;5055909;28;20452;-65
2021/01/31 12:35:20;;;;;;;10.67;9.77;;;8.60;39.90;;;;;;5055042;28;20540;-66
2021/01/31 12:37:45;;;;;;;10.30;9.50;;;8.50;40.00;;;;;;5054404;28;20896;-63
2021/01/31 12:40:11;;;;;;;9.53;8.70;;;8.40;39.40;;;;;;5056008;28;20740;-62
2021/01/31 12:42:37;;;;;;;9.43;8.63;;;8.50;41.40;;;;;;5054526;28;20314;-65
2021/01/31 12:45:05;;;;;;;11.20;10.20;;;8.60;39.50;;;;;;5055179;28;20533;-64
2021/01/31 12:47:30;;;;;;;10.90;10.00;;;8.60;40.90;;;;;;5055842;28;20790;-64
2021/01/31 12:49:56;;;;;;;8.67;8.00;;;8.70;40.80;;;;;;5055700;28;20507;-64
2021/01/31 12:52:22;;;;;;;9.40;8.60;;;8.40;39.00;;;;;;5037763;28;20333;-62
2021/01/31 12:54:47;;;;;;;9.70;8.90;;;8.20;40.00;;;;;;5055737;28;20223;-64
2021/01/31 12:57:13;;;;;;;9.00;8.20;;;8.00;40.90;;;;;;5055547;28;20269;-65
2021/01/31 12:59:38;;;;;;;10.10;9.20;;;7.90;41.40;;;;;;5055271;28;20230;-64
2021/01/31 13:02:04;;;;;;;10.93;9.93;;;8.10;41.00;;;;;;5054606;28;20223;-62
2021/01/31 13:04:29;;;;;;;9.43;8.63;;;8.20;40.80;;;;;;5055895;28;20306;-62
2021/01/31 13:06:55;;;;;;;10.07;9.20;;;8.50;41.30;;;;;;5055427;28;20235;-65
2021/01/31 13:09:20;;;;;;;9.43;8.67;;;8.50;39.50;;;;;;5058354;28;20226;-62
2021/01/31 13:11:46;;;;;;;10.00;9.10;;;8.50;40.30;;;;;;5059006;28;20230;-62
2021/01/31 13:14:12;;;;;;;10.50;9.60;;;8.60;39.90;;;;;;5058731;28;20280;-64
2021/01/31 13:16:37;;;;;;;11.33;10.27;;;8.60;41.10;;;;;;5058863;28;20655;-64
2021/01/31 13:19:03;;;;;;;9.93;9.13;;;8.50;40.70;;;;;;5058512;28;20223;-63
2021/01/31 13:21:28;;;;;;;8.90;8.20;;;8.70;42.50;;;;;;5058564;28;20231;-64